sensor_id;sensor_type;location;lat;lon;timestamp;P1;durP1;ratioP1;P2;durP2;ratioP2
3547;SDS011;1788;49.400;11.092;2024-03-07T00:01:50;35.43;;;18.07;;
3547;SDS011;1788;49.400;11.092;2024-03-07T00:04:17;33.87;;;17.97;;
3547;SDS011;1788;49.400;11.092;2024-03-07T00:06:43;28.70;;;15.67;;
3547;SDS011;1788;49.400;11.092;2024-03-07T00:09:10;28.33;;;15.83;;
3547;SDS011;1788;49.400;11.092;2024-03-07T00:11:36;31.97;;;16.83;;
3547;SDS011;1788;49.400;11.092;2024-03-07T00:14:04;23.53;;;13.87;;
3547;SDS011;1788;49.400;11.092;2024-03-07T00:16:30;23.20;;;14.13;;
3547;SDS011;1788;49.400;11.092;2024-03-07T00:18:57;29.80;;;15.73;;
3547;SDS011;1788;49.400;11.092;2024-03-07T00:21:23;27.73;;;14.40;;
3547;SDS011;1788;49.400;11.092;2024-03-07T00:23:50;21.90;;;14.20;;
3547;SDS011;1788;49.400;11.092;2024-03-07T00:26:17;26.00;;;14.40;;
3547;SDS011;1788;49.400;11.092;2024-03-07T00:28:43;23.60;;;14.00;;
3547;SDS011;1788;49.400;11.092;2024-03-07T00:31:11;21.30;;;13.73;;
3547;SDS011;1788;49.400;11.092;2024-03-07T00:33:37;24.90;;;13.37;;
3547;SDS011;1788;49.400;11.092;2024-03-07T00:36:05;23.87;;;13.70;;
3547;SDS011;1788;49.400;11.092;2024-03-07T00:38:31;26.00;;;13.47;;
3547;SDS011;1788;49.400;11.092;2024-03-07T00:40:59;26.23;;;13.37;;
3547;SDS011;1788;49.400;11.092;2024-03-07T00:43:26;26.70;;;15.10;;
3547;SDS011;1788;49.400;11.092;2024-03-07T00:45:52;27.47;;;12.97;;
3547;SDS011;1788;49.400;11.092;2024-03-07T00:48:19;23.27;;;12.13;;
3547;SDS011;1788;49.400;11.092;2024-03-07T00:50:46;26.50;;;13.60;;
3547;SDS011;1788;49.400;11.092;2024-03-07T00:53:14;25.53;;;12.80;;
3547;SDS011;1788;49.400;11.092;2024-03-07T00:55:40;24.10;;;12.17;;
3547;SDS011;1788;49.400;11.092;2024-03-07T00:58:07;23.50;;;12.60;;
3547;SDS011;1788;49.400;11.092;2024-03-07T01:00:34;17.93;;;11.20;;
3547;SDS011;1788;49.400;11.092;2024-03-07T01:03:01;20.27;;;11.87;;
3547;SDS011;1788;49.400;11.092;2024-03-07T01:05:28;21.57;;;12.37;;
3547;SDS011;1788;49.400;11.092;2024-03-07T01:07:55;21.70;;;11.67;;
3547;SDS011;1788;49.400;11.092;2024-03-07T01:10:22;21.07;;;11.63;;
3547;SDS011;1788;49.400;11.092;2024-03-07T01:12:49;21.90;;;10.70;;
3547;SDS011;1788;49.400;11.092;2024-03-07T01:15:15;20.40;;;12.00;;
3547;SDS011;1788;49.400;11.092;2024-03-07T01:17:42;22.73;;;12.73;;
3547;SDS011;1788;49.400;11.092;2024-03-07T01:20:09;20.43;;;11.40;;
3547;SDS011;1788;49.400;11.092;2024-03-07T01:22:36;25.00;;;12.37;;
3547;SDS011;1788;49.400;11.092;2024-03-07T01:25:03;20.73;;;11.67;;
3547;SDS011;1788;49.400;11.092;2024-03-07T01:27:30;19.43;;;10.83;;
3547;SDS011;1788;49.400;11.092;2024-03-07T01:29:57;22.80;;;12.07;;
3547;SDS011;1788;49.400;11.092;2024-03-07T01:32:24;18.70;;;11.63;;
3547;SDS011;1788;49.400;11.092;2024-03-07T01:34:50;22.97;;;11.93;;
3547;SDS011;1788;49.400;11.092;2024-03-07T01:37:17;19.60;;;10.43;;
3547;SDS011;1788;49.400;11.092;2024-03-07T01:39:44;18.57;;;9.80;;
3547;SDS011;1788;49.400;11.092;2024-03-07T01:42:11;16.97;;;10.60;;
3547;SDS011;1788;49.400;11.092;2024-03-07T01:44:38;17.17;;;10.67;;
3547;SDS011;1788;49.400;11.092;2024-03-07T01:47:05;14.10;;;9.87;;
3547;SDS011;1788;49.400;11.092;2024-03-07T01:49:32;13.37;;;9.27;;
3547;SDS011;1788;49.400;11.092;2024-03-07T01:51:59;19.33;;;10.10;;
3547;SDS011;1788;49.400;11.092;2024-03-07T01:54:27;19.73;;;10.67;;
3547;SDS011;1788;49.400;11.092;2024-03-07T01:56:54;15.20;;;9.53;;
3547;SDS011;1788;49.400;11.092;2024-03-07T01:59:20;16.13;;;10.10;;
3547;SDS011;1788;49.400;11.092;2024-03-07T02:01:47;15.93;;;9.70;;
3547;SDS011;1788;49.400;11.092;2024-03-07T02:04:14;16.30;;;9.90;;
3547;SDS011;1788;49.400;11.092;2024-03-07T02:06:41;17.63;;;9.57;;
3547;SDS011;1788;49.400;11.092;2024-03-07T02:09:08;17.87;;;10.67;;
3547;SDS011;1788;49.400;11.092;2024-03-07T02:11:35;19.03;;;10.27;;
3547;SDS011;1788;49.400;11.092;2024-03-07T02:14:02;18.43;;;9.93;;
3547;SDS011;1788;49.400;11.092;2024-03-07T02:16:28;21.43;;;11.10;;
3547;SDS011;1788;49.400;11.092;2024-03-07T02:18:57;19.43;;;10.67;;
3547;SDS011;1788;49.400;11.092;2024-03-07T02:21:23;21.00;;;11.07;;
3547;SDS011;1788;49.400;11.092;2024-03-07T02:23:50;21.53;;;10.97;;
3547;SDS011;1788;49.400;11.092;2024-03-07T02:26:17;17.73;;;10.90;;
3547;SDS011;1788;49.400;11.092;2024-03-07T02:28:44;20.43;;;10.23;;
3547;SDS011;1788;49.400;11.092;2024-03-07T02:31:11;18.50;;;9.70;;
3547;SDS011;1788;49.400;11.092;2024-03-07T02:33:37;17.47;;;10.00;;
3547;SDS011;1788;49.400;11.092;2024-03-07T02:36:04;16.03;;;9.83;;
3547;SDS011;1788;49.400;11.092;2024-03-07T02:38:30;15.10;;;8.80;;
3547;SDS011;1788;49.400;11.092;2024-03-07T02:40:57;20.07;;;10.77;;
3547;SDS011;1788;49.400;11.092;2024-03-07T02:43:24;16.73;;;10.10;;
3547;SDS011;1788;49.400;11.092;2024-03-07T02:45:50;21.60;;;10.07;;
3547;SDS011;1788;49.400;11.092;2024-03-07T02:48:17;17.40;;;10.47;;
3547;SDS011;1788;49.400;11.092;2024-03-07T02:50:43;19.50;;;10.70;;
3547;SDS011;1788;49.400;11.092;2024-03-07T02:53:10;20.20;;;11.27;;
3547;SDS011;1788;49.400;11.092;2024-03-07T02:55:37;21.93;;;11.13;;
3547;SDS011;1788;49.400;11.092;2024-03-07T02:58:03;21.93;;;11.07;;
3547;SDS011;1788;49.400;11.092;2024-03-07T03:00:30;22.33;;;10.87;;
3547;SDS011;1788;49.400;11.092;2024-03-07T03:02:57;19.80;;;10.23;;
3547;SDS011;1788;49.400;11.092;2024-03-07T03:05:24;22.33;;;12.13;;
3547;SDS011;1788;49.400;11.092;2024-03-07T03:07:51;20.00;;;10.30;;
3547;SDS011;1788;49.400;11.092;2024-03-07T03:10:18;18.43;;;9.27;;
3547;SDS011;1788;49.400;11.092;2024-03-07T03:12:44;18.47;;;11.27;;
3547;SDS011;1788;49.400;11.092;2024-03-07T03:15:11;15.90;;;10.07;;
3547;SDS011;1788;49.400;11.092;2024-03-07T03:17:38;15.60;;;8.70;;
3547;SDS011;1788;49.400;11.092;2024-03-07T03:20:04;17.50;;;9.70;;
3547;SDS011;1788;49.400;11.092;2024-03-07T03:22:32;15.60;;;9.63;;
3547;SDS011;1788;49.400;11.092;2024-03-07T03:24:58;19.20;;;10.10;;
3547;SDS011;1788;49.400;11.092;2024-03-07T03:27:25;17.77;;;9.63;;
3547;SDS011;1788;49.400;11.092;2024-03-07T03:29:52;16.33;;;9.07;;
3547;SDS011;1788;49.400;11.092;2024-03-07T03:32:18;14.90;;;8.80;;
3547;SDS011;1788;49.400;11.092;2024-03-07T03:34:46;17.63;;;9.67;;
3547;SDS011;1788;49.400;11.092;2024-03-07T03:37:12;15.57;;;8.63;;
3547;SDS011;1788;49.400;11.092;2024-03-07T03:39:40;14.73;;;9.40;;
3547;SDS011;1788;49.400;11.092;2024-03-07T03:42:06;15.83;;;9.40;;
3547;SDS011;1788;49.400;11.092;2024-03-07T03:44:33;13.13;;;8.23;;
3547;SDS011;1788;49.400;11.092;2024-03-07T03:46:59;15.30;;;9.40;;
3547;SDS011;1788;49.400;11.092;2024-03-07T03:49:26;13.77;;;8.87;;
3547;SDS011;1788;49.400;11.092;2024-03-07T03:51:53;15.20;;;9.17;;
3547;SDS011;1788;49.400;11.092;2024-03-07T03:54:20;16.93;;;9.70;;
3547;SDS011;1788;49.400;11.092;2024-03-07T03:56:47;16.03;;;9.20;;
3547;SDS011;1788;49.400;11.092;2024-03-07T03:59:13;16.93;;;9.43;;
3547;SDS011;1788;49.400;11.092;2024-03-07T04:01:40;17.43;;;9.13;;
3547;SDS011;1788;49.400;11.092;2024-03-07T04:04:07;18.37;;;9.67;;
3547;SDS011;1788;49.400;11.092;2024-03-07T04:06:34;18.17;;;9.70;;
3547;SDS011;1788;49.400;11.092;2024-03-07T04:09:00;16.63;;;10.40;;
3547;SDS011;1788;49.400;11.092;2024-03-07T04:11:27;22.73;;;10.43;;
3547;SDS011;1788;49.400;11.092;2024-03-07T04:13:54;22.43;;;11.07;;
3547;SDS011;1788;49.400;11.092;2024-03-07T04:16:21;22.67;;;11.37;;
3547;SDS011;1788;49.400;11.092;2024-03-07T04:18:48;19.57;;;10.43;;
3547;SDS011;1788;49.400;11.092;2024-03-07T04:21:14;18.43;;;10.27;;
3547;SDS011;1788;49.400;11.092;2024-03-07T04:23:41;14.87;;;9.23;;
3547;SDS011;1788;49.400;11.092;2024-03-07T04:26:07;21.27;;;11.37;;
3547;SDS011;1788;49.400;11.092;2024-03-07T04:28:34;21.97;;;11.67;;
3547;SDS011;1788;49.400;11.092;2024-03-07T04:31:01;15.03;;;9.63;;
3547;SDS011;1788;49.400;11.092;2024-03-07T04:33:27;16.93;;;10.27;;
3547;SDS011;1788;49.400;11.092;2024-03-07T04:35:54;22.87;;;11.70;;
3547;SDS011;1788;49.400;11.092;2024-03-07T04:38:21;22.33;;;11.60;;
3547;SDS011;1788;49.400;11.092;2024-03-07T04:40:48;19.53;;;10.17;;
3547;SDS011;1788;49.400;11.092;2024-03-07T04:43:15;17.53;;;9.73;;
3547;SDS011;1788;49.400;11.092;2024-03-07T04:45:42;19.13;;;9.80;;
3547;SDS011;1788;49.400;11.092;2024-03-07T04:48:09;22.80;;;11.30;;
3547;SDS011;1788;49.400;11.092;2024-03-07T04:50:37;23.93;;;12.50;;
3547;SDS011;1788;49.400;11.092;2024-03-07T04:53:04;38.30;;;15.43;;
3547;SDS011;1788;49.400;11.092;2024-03-07T04:55:31;30.20;;;15.03;;
3547;SDS011;1788;49.400;11.092;2024-03-07T04:57:58;30.13;;;14.97;;
3547;SDS011;1788;49.400;11.092;2024-03-07T05:00:25;31.17;;;15.93;;
3547;SDS011;1788;49.400;11.092;2024-03-07T05:02:51;31.80;;;14.27;;
3547;SDS011;1788;49.400;11.092;2024-03-07T05:05:18;28.33;;;14.13;;
3547;SDS011;1788;49.400;11.092;2024-03-07T05:07:45;26.83;;;14.67;;
3547;SDS011;1788;49.400;11.092;2024-03-07T05:10:12;32.17;;;15.90;;
3547;SDS011;1788;49.400;11.092;2024-03-07T05:12:38;32.83;;;14.77;;
3547;SDS011;1788;49.400;11.092;2024-03-07T05:15:05;24.80;;;12.80;;
3547;SDS011;1788;49.400;11.092;2024-03-07T05:17:32;20.50;;;11.73;;
3547;SDS011;1788;49.400;11.092;2024-03-07T05:19:59;20.37;;;12.43;;
3547;SDS011;1788;49.400;11.092;2024-03-07T05:22:25;18.80;;;10.63;;
3547;SDS011;1788;49.400;11.092;2024-03-07T05:24:52;24.73;;;13.23;;
3547;SDS011;1788;49.400;11.092;2024-03-07T05:27:18;22.07;;;13.47;;
3547;SDS011;1788;49.400;11.092;2024-03-07T05:29:45;21.97;;;12.93;;
3547;SDS011;1788;49.400;11.092;2024-03-07T05:34:39;16.90;;;10.47;;
3547;SDS011;1788;49.400;11.092;2024-03-07T05:37:06;21.87;;;11.80;;
3547;SDS011;1788;49.400;11.092;2024-03-07T05:39:33;19.03;;;11.13;;
3547;SDS011;1788;49.400;11.092;2024-03-07T05:42:00;22.80;;;12.10;;
3547;SDS011;1788;49.400;11.092;2024-03-07T05:44:26;19.77;;;11.37;;
3547;SDS011;1788;49.400;11.092;2024-03-07T05:46:54;17.93;;;10.27;;
3547;SDS011;1788;49.400;11.092;2024-03-07T05:49:21;17.53;;;10.30;;
3547;SDS011;1788;49.400;11.092;2024-03-07T05:51:48;20.10;;;10.33;;
3547;SDS011;1788;49.400;11.092;2024-03-07T05:54:14;16.10;;;10.17;;
3547;SDS011;1788;49.400;11.092;2024-03-07T05:56:41;19.33;;;12.37;;
3547;SDS011;1788;49.400;11.092;2024-03-07T05:59:08;22.50;;;11.93;;
3547;SDS011;1788;49.400;11.092;2024-03-07T06:01:35;17.63;;;10.27;;
3547;SDS011;1788;49.400;11.092;2024-03-07T06:04:01;18.27;;;9.43;;
3547;SDS011;1788;49.400;11.092;2024-03-07T06:06:28;17.57;;;10.33;;
3547;SDS011;1788;49.400;11.092;2024-03-07T06:08:56;20.43;;;10.97;;
3547;SDS011;1788;49.400;11.092;2024-03-07T06:11:24;18.97;;;10.60;;
3547;SDS011;1788;49.400;11.092;2024-03-07T06:13:51;19.83;;;10.73;;
3547;SDS011;1788;49.400;11.092;2024-03-07T06:16:18;23.07;;;11.60;;
3547;SDS011;1788;49.400;11.092;2024-03-07T06:18:46;20.27;;;10.93;;
3547;SDS011;1788;49.400;11.092;2024-03-07T06:21:13;19.57;;;10.83;;
3547;SDS011;1788;49.400;11.092;2024-03-07T06:23:39;24.33;;;12.90;;
3547;SDS011;1788;49.400;11.092;2024-03-07T06:26:06;23.13;;;11.87;;
3547;SDS011;1788;49.400;11.092;2024-03-07T06:28:32;21.23;;;11.47;;
3547;SDS011;1788;49.400;11.092;2024-03-07T06:30:59;21.53;;;11.37;;
3547;SDS011;1788;49.400;11.092;2024-03-07T06:33:26;24.40;;;12.70;;
3547;SDS011;1788;49.400;11.092;2024-03-07T06:35:53;25.13;;;12.37;;
3547;SDS011;1788;49.400;11.092;2024-03-07T06:38:20;25.50;;;12.37;;
3547;SDS011;1788;49.400;11.092;2024-03-07T06:40:47;21.17;;;11.83;;
3547;SDS011;1788;49.400;11.092;2024-03-07T06:43:14;20.33;;;11.77;;
3547;SDS011;1788;49.400;11.092;2024-03-07T06:45:41;23.47;;;12.37;;
3547;SDS011;1788;49.400;11.092;2024-03-07T06:48:08;20.33;;;13.10;;
3547;SDS011;1788;49.400;11.092;2024-03-07T06:50:36;25.00;;;12.40;;
3547;SDS011;1788;49.400;11.092;2024-03-07T06:53:02;22.67;;;12.07;;
3547;SDS011;1788;49.400;11.092;2024-03-07T06:55:28;24.57;;;12.90;;
3547;SDS011;1788;49.400;11.092;2024-03-07T06:57:55;28.00;;;13.80;;
3547;SDS011;1788;49.400;11.092;2024-03-07T07:00:22;22.47;;;12.67;;
3547;SDS011;1788;49.400;11.092;2024-03-07T07:02:48;26.47;;;13.57;;
3547;SDS011;1788;49.400;11.092;2024-03-07T07:05:16;22.03;;;11.93;;
3547;SDS011;1788;49.400;11.092;2024-03-07T07:07:42;25.30;;;13.17;;
3547;SDS011;1788;49.400;11.092;2024-03-07T07:10:10;19.63;;;11.57;;
3547;SDS011;1788;49.400;11.092;2024-03-07T07:12:36;17.97;;;11.77;;
3547;SDS011;1788;49.400;11.092;2024-03-07T07:15:04;25.97;;;12.30;;
3547;SDS011;1788;49.400;11.092;2024-03-07T07:17:30;24.67;;;12.97;;
3547;SDS011;1788;49.400;11.092;2024-03-07T07:19:57;25.23;;;12.37;;
3547;SDS011;1788;49.400;11.092;2024-03-07T07:22:24;23.10;;;12.23;;
3547;SDS011;1788;49.400;11.092;2024-03-07T07:24:50;22.57;;;11.97;;
3547;SDS011;1788;49.400;11.092;2024-03-07T07:27:17;21.00;;;11.50;;
3547;SDS011;1788;49.400;11.092;2024-03-07T07:29:44;24.63;;;12.93;;
3547;SDS011;1788;49.400;11.092;2024-03-07T07:32:11;22.97;;;12.23;;
3547;SDS011;1788;49.400;11.092;2024-03-07T07:34:38;24.47;;;11.90;;
3547;SDS011;1788;49.400;11.092;2024-03-07T07:37:05;25.50;;;13.17;;
3547;SDS011;1788;49.400;11.092;2024-03-07T07:39:32;22.60;;;12.30;;
3547;SDS011;1788;49.400;11.092;2024-03-07T07:41:59;30.77;;;13.77;;
3547;SDS011;1788;49.400;11.092;2024-03-07T07:44:26;27.67;;;13.73;;
3547;SDS011;1788;49.400;11.092;2024-03-07T07:46:53;24.23;;;13.33;;
3547;SDS011;1788;49.400;11.092;2024-03-07T07:49:20;28.90;;;13.80;;
3547;SDS011;1788;49.400;11.092;2024-03-07T07:51:47;26.23;;;13.97;;
3547;SDS011;1788;49.400;11.092;2024-03-07T07:54:13;26.10;;;13.67;;
3547;SDS011;1788;49.400;11.092;2024-03-07T07:56:40;24.17;;;12.73;;
3547;SDS011;1788;49.400;11.092;2024-03-07T07:59:06;25.57;;;13.07;;
3547;SDS011;1788;49.400;11.092;2024-03-07T08:01:33;22.03;;;12.63;;
3547;SDS011;1788;49.400;11.092;2024-03-07T08:04:00;22.17;;;13.30;;
3547;SDS011;1788;49.400;11.092;2024-03-07T08:06:27;25.30;;;14.13;;
3547;SDS011;1788;49.400;11.092;2024-03-07T08:08:54;26.50;;;13.00;;
3547;SDS011;1788;49.400;11.092;2024-03-07T08:11:21;25.67;;;13.30;;
3547;SDS011;1788;49.400;11.092;2024-03-07T08:13:48;22.53;;;12.80;;
3547;SDS011;1788;49.400;11.092;2024-03-07T08:16:15;26.93;;;13.93;;
3547;SDS011;1788;49.400;11.092;2024-03-07T08:18:42;19.47;;;13.10;;
3547;SDS011;1788;49.400;11.092;2024-03-07T08:21:08;25.13;;;14.60;;
3547;SDS011;1788;49.400;11.092;2024-03-07T08:23:36;21.90;;;13.47;;
3547;SDS011;1788;49.400;11.092;2024-03-07T08:26:02;24.00;;;13.13;;
3547;SDS011;1788;49.400;11.092;2024-03-07T08:28:30;23.17;;;12.97;;
3547;SDS011;1788;49.400;11.092;2024-03-07T08:30:56;26.20;;;12.60;;
3547;SDS011;1788;49.400;11.092;2024-03-07T08:33:25;22.73;;;12.43;;
3547;SDS011;1788;49.400;11.092;2024-03-07T08:35:52;22.20;;;12.30;;
3547;SDS011;1788;49.400;11.092;2024-03-07T08:38:18;24.93;;;13.73;;
3547;SDS011;1788;49.400;11.092;2024-03-07T08:40:45;20.00;;;12.13;;
3547;SDS011;1788;49.400;11.092;2024-03-07T08:43:11;24.53;;;12.73;;
3547;SDS011;1788;49.400;11.092;2024-03-07T08:45:38;22.33;;;12.40;;
3547;SDS011;1788;49.400;11.092;2024-03-07T08:48:05;22.63;;;13.60;;
3547;SDS011;1788;49.400;11.092;2024-03-07T08:50:31;23.53;;;13.23;;
3547;SDS011;1788;49.400;11.092;2024-03-07T08:52:59;24.57;;;13.50;;
3547;SDS011;1788;49.400;11.092;2024-03-07T08:55:26;26.57;;;11.73;;
3547;SDS011;1788;49.400;11.092;2024-03-07T08:57:53;23.17;;;12.00;;
3547;SDS011;1788;49.400;11.092;2024-03-07T09:00:20;23.87;;;12.70;;
3547;SDS011;1788;49.400;11.092;2024-03-07T09:02:48;24.13;;;13.30;;
3547;SDS011;1788;49.400;11.092;2024-03-07T09:05:14;24.93;;;13.63;;
3547;SDS011;1788;49.400;11.092;2024-03-07T09:07:40;18.23;;;11.80;;
3547;SDS011;1788;49.400;11.092;2024-03-07T09:10:07;17.60;;;10.67;;
3547;SDS011;1788;49.400;11.092;2024-03-07T09:12:33;16.00;;;9.57;;
3547;SDS011;1788;49.400;11.092;2024-03-07T09:15:00;18.40;;;10.30;;
3547;SDS011;1788;49.400;11.092;2024-03-07T09:17:27;16.67;;;9.97;;
3547;SDS011;1788;49.400;11.092;2024-03-07T09:19:54;15.00;;;9.07;;
3547;SDS011;1788;49.400;11.092;2024-03-07T09:22:21;17.83;;;9.40;;
3547;SDS011;1788;49.400;11.092;2024-03-07T09:24:47;17.10;;;9.27;;
3547;SDS011;1788;49.400;11.092;2024-03-07T09:27:14;18.60;;;10.07;;
3547;SDS011;1788;49.400;11.092;2024-03-07T09:29:41;18.43;;;10.07;;
3547;SDS011;1788;49.400;11.092;2024-03-07T09:32:07;17.30;;;10.67;;
3547;SDS011;1788;49.400;11.092;2024-03-07T09:34:34;16.37;;;9.70;;
3547;SDS011;1788;49.400;11.092;2024-03-07T09:37:01;15.87;;;9.23;;
3547;SDS011;1788;49.400;11.092;2024-03-07T09:39:27;18.60;;;10.03;;
3547;SDS011;1788;49.400;11.092;2024-03-07T09:41:54;16.13;;;9.57;;
3547;SDS011;1788;49.400;11.092;2024-03-07T09:44:21;16.77;;;9.50;;
3547;SDS011;1788;49.400;11.092;2024-03-07T09:46:47;15.60;;;9.63;;
3547;SDS011;1788;49.400;11.092;2024-03-07T09:49:14;23.27;;;10.90;;
3547;SDS011;1788;49.400;11.092;2024-03-07T09:51:41;18.47;;;9.70;;
3547;SDS011;1788;49.400;11.092;2024-03-07T09:54:07;16.33;;;10.50;;
3547;SDS011;1788;49.400;11.092;2024-03-07T09:56:34;15.63;;;10.00;;
3547;SDS011;1788;49.400;11.092;2024-03-07T09:59:00;18.13;;;10.67;;
3547;SDS011;1788;49.400;11.092;2024-03-07T10:01:27;15.77;;;9.67;;
3547;SDS011;1788;49.400;11.092;2024-03-07T10:03:57;20.33;;;11.50;;
3547;SDS011;1788;49.400;11.092;2024-03-07T10:06:20;18.83;;;10.23;;
3547;SDS011;1788;49.400;11.092;2024-03-07T10:08:47;19.93;;;11.37;;
3547;SDS011;1788;49.400;11.092;2024-03-07T10:11:15;20.87;;;10.87;;
3547;SDS011;1788;49.400;11.092;2024-03-07T10:13:41;16.90;;;9.93;;
3547;SDS011;1788;49.400;11.092;2024-03-07T10:16:09;18.70;;;11.50;;
3547;SDS011;1788;49.400;11.092;2024-03-07T10:21:03;24.23;;;11.63;;
3547;SDS011;1788;49.400;11.092;2024-03-07T10:23:29;14.17;;;8.17;;
3547;SDS011;1788;49.400;11.092;2024-03-07T10:25:57;18.87;;;11.57;;
3547;SDS011;1788;49.400;11.092;2024-03-07T10:28:23;15.43;;;9.20;;
3547;SDS011;1788;49.400;11.092;2024-03-07T10:30:51;16.77;;;10.47;;
3547;SDS011;1788;49.400;11.092;2024-03-07T10:33:17;16.20;;;9.77;;
3547;SDS011;1788;49.400;11.092;2024-03-07T10:38:12;19.03;;;9.70;;
3547;SDS011;1788;49.400;11.092;2024-03-07T10:40:39;15.13;;;9.33;;
3547;SDS011;1788;49.400;11.092;2024-03-07T10:45:33;15.70;;;9.97;;
3547;SDS011;1788;49.400;11.092;2024-03-07T10:48:00;14.97;;;8.87;;
3547;SDS011;1788;49.400;11.092;2024-03-07T10:50:30;18.40;;;10.83;;
3547;SDS011;1788;49.400;11.092;2024-03-07T11:00:14;17.77;;;10.23;;
3547;SDS011;1788;49.400;11.092;2024-03-07T11:02:43;14.90;;;9.80;;
3547;SDS011;1788;49.400;11.092;2024-03-07T11:05:09;19.73;;;10.87;;
3547;SDS011;1788;49.400;11.092;2024-03-07T11:07:35;18.53;;;10.33;;
3547;SDS011;1788;49.400;11.092;2024-03-07T11:10:02;17.13;;;9.57;;
3547;SDS011;1788;49.400;11.092;2024-03-07T11:12:29;16.23;;;9.97;;
3547;SDS011;1788;49.400;11.092;2024-03-07T11:14:55;13.77;;;9.40;;
3547;SDS011;1788;49.400;11.092;2024-03-07T11:17:22;22.17;;;11.00;;
3547;SDS011;1788;49.400;11.092;2024-03-07T11:19:49;16.17;;;9.30;;
3547;SDS011;1788;49.400;11.092;2024-03-07T11:24:42;15.30;;;10.07;;
3547;SDS011;1788;49.400;11.092;2024-03-07T11:27:10;16.73;;;10.47;;
3547;SDS011;1788;49.400;11.092;2024-03-07T11:32:02;23.03;;;10.53;;
3547;SDS011;1788;49.400;11.092;2024-03-07T11:34:29;14.37;;;10.47;;
3547;SDS011;1788;49.400;11.092;2024-03-07T11:36:56;16.03;;;9.57;;
3547;SDS011;1788;49.400;11.092;2024-03-07T11:41:49;15.07;;;9.27;;
3547;SDS011;1788;49.400;11.092;2024-03-07T11:44:15;13.73;;;9.40;;
3547;SDS011;1788;49.400;11.092;2024-03-07T11:46:43;15.50;;;10.20;;
3547;SDS011;1788;49.400;11.092;2024-03-07T11:49:09;15.03;;;9.23;;
3547;SDS011;1788;49.400;11.092;2024-03-07T11:51:37;18.63;;;10.77;;
3547;SDS011;1788;49.400;11.092;2024-03-07T11:54:04;15.33;;;10.03;;
3547;SDS011;1788;49.400;11.092;2024-03-07T11:56:30;14.70;;;10.03;;
3547;SDS011;1788;49.400;11.092;2024-03-07T11:58:57;14.30;;;9.10;;
3547;SDS011;1788;49.400;11.092;2024-03-07T12:01:26;18.00;;;10.73;;
3547;SDS011;1788;49.400;11.092;2024-03-07T12:03:51;14.70;;;9.97;;
3547;SDS011;1788;49.400;11.092;2024-03-07T12:06:18;18.50;;;10.63;;
3547;SDS011;1788;49.400;11.092;2024-03-07T12:08:45;20.70;;;10.10;;
3547;SDS011;1788;49.400;11.092;2024-03-07T12:11:12;16.37;;;7.60;;
3547;SDS011;1788;49.400;11.092;2024-03-07T12:13:41;18.67;;;10.47;;
3547;SDS011;1788;49.400;11.092;2024-03-07T12:16:07;17.67;;;9.47;;
3547;SDS011;1788;49.400;11.092;2024-03-07T12:18:35;14.67;;;8.20;;
3547;SDS011;1788;49.400;11.092;2024-03-07T12:21:01;10.43;;;7.77;;
3547;SDS011;1788;49.400;11.092;2024-03-07T12:23:28;19.63;;;10.13;;
3547;SDS011;1788;49.400;11.092;2024-03-07T12:28:22;12.80;;;8.60;;
3547;SDS011;1788;49.400;11.092;2024-03-07T12:30:50;17.67;;;10.13;;
3547;SDS011;1788;49.400;11.092;2024-03-07T12:33:16;15.53;;;9.90;;
3547;SDS011;1788;49.400;11.092;2024-03-07T12:35:43;18.50;;;10.70;;
3547;SDS011;1788;49.400;11.092;2024-03-07T12:38:10;16.47;;;8.40;;
3547;SDS011;1788;49.400;11.092;2024-03-07T12:40:38;15.33;;;8.83;;
3547;SDS011;1788;49.400;11.092;2024-03-07T12:45:32;16.57;;;10.77;;
3547;SDS011;1788;49.400;11.092;2024-03-07T12:47:58;16.67;;;10.43;;
3547;SDS011;1788;49.400;11.092;2024-03-07T12:50:25;15.83;;;9.93;;
3547;SDS011;1788;49.400;11.092;2024-03-07T12:52:52;17.10;;;8.93;;
3547;SDS011;1788;49.400;11.092;2024-03-07T12:55:19;12.63;;;8.03;;
3547;SDS011;1788;49.400;11.092;2024-03-07T12:57:46;16.03;;;9.93;;
3547;SDS011;1788;49.400;11.092;2024-03-07T13:00:13;14.93;;;9.87;;
3547;SDS011;1788;49.400;11.092;2024-03-07T13:02:40;13.47;;;8.73;;
3547;SDS011;1788;49.400;11.092;2024-03-07T13:05:07;22.53;;;11.97;;
3547;SDS011;1788;49.400;11.092;2024-03-07T13:07:34;20.23;;;11.40;;
3547;SDS011;1788;49.400;11.092;2024-03-07T13:10:00;23.20;;;12.73;;
3547;SDS011;1788;49.400;11.092;2024-03-07T13:12:27;19.70;;;11.53;;
3547;SDS011;1788;49.400;11.092;2024-03-07T13:14:53;14.10;;;10.33;;
3547;SDS011;1788;49.400;11.092;2024-03-07T13:17:20;13.80;;;8.30;;
3547;SDS011;1788;49.400;11.092;2024-03-07T13:19:47;17.10;;;10.03;;
3547;SDS011;1788;49.400;11.092;2024-03-07T13:22:14;14.43;;;9.80;;
3547;SDS011;1788;49.400;11.092;2024-03-07T13:24:41;12.20;;;9.00;;
3547;SDS011;1788;49.400;11.092;2024-03-07T13:27:08;18.50;;;10.53;;
3547;SDS011;1788;49.400;11.092;2024-03-07T13:29:35;17.77;;;10.87;;
3547;SDS011;1788;49.400;11.092;2024-03-07T13:32:02;18.70;;;11.47;;
3547;SDS011;1788;49.400;11.092;2024-03-07T13:34:29;13.00;;;8.67;;
3547;SDS011;1788;49.400;11.092;2024-03-07T13:36:56;13.73;;;7.47;;
3547;SDS011;1788;49.400;11.092;2024-03-07T13:39:23;19.90;;;11.07;;
3547;SDS011;1788;49.400;11.092;2024-03-07T13:41:50;18.07;;;10.73;;
3547;SDS011;1788;49.400;11.092;2024-03-07T13:44:17;17.73;;;10.90;;
3547;SDS011;1788;49.400;11.092;2024-03-07T13:46:44;20.47;;;10.50;;
3547;SDS011;1788;49.400;11.092;2024-03-07T13:49:11;17.77;;;10.30;;
3547;SDS011;1788;49.400;11.092;2024-03-07T13:51:38;19.77;;;10.67;;
3547;SDS011;1788;49.400;11.092;2024-03-07T13:54:04;19.23;;;10.67;;
3547;SDS011;1788;49.400;11.092;2024-03-07T14:28:40;20.43;;;11.77;;
3547;SDS011;1788;49.400;11.092;2024-03-07T14:30:54;23.47;;;13.90;;
3547;SDS011;1788;49.400;11.092;2024-03-07T14:33:23;22.93;;;12.33;;
3547;SDS011;1788;49.400;11.092;2024-03-07T14:40:40;22.57;;;11.70;;
3547;SDS011;1788;49.400;11.092;2024-03-07T14:43:07;18.70;;;11.67;;
3547;SDS011;1788;49.400;11.092;2024-03-07T14:45:36;19.50;;;11.90;;
3547;SDS011;1788;49.400;11.092;2024-03-07T14:48:01;22.40;;;13.83;;
3547;SDS011;1788;49.400;11.092;2024-03-07T14:50:29;22.20;;;13.00;;
3547;SDS011;1788;49.400;11.092;2024-03-07T14:52:56;17.07;;;11.43;;
3547;SDS011;1788;49.400;11.092;2024-03-07T14:55:23;17.57;;;11.23;;
3547;SDS011;1788;49.400;11.092;2024-03-07T14:57:49;18.50;;;12.13;;
3547;SDS011;1788;49.400;11.092;2024-03-07T15:00:17;19.23;;;11.93;;
3547;SDS011;1788;49.400;11.092;2024-03-07T15:05:10;20.87;;;13.23;;
3547;SDS011;1788;49.400;11.092;2024-03-07T15:07:37;21.47;;;13.13;;
3547;SDS011;1788;49.400;11.092;2024-03-07T15:12:30;21.37;;;12.70;;
3547;SDS011;1788;49.400;11.092;2024-03-07T15:14:57;19.50;;;11.53;;
3547;SDS011;1788;49.400;11.092;2024-03-07T15:17:24;18.53;;;11.70;;
3547;SDS011;1788;49.400;11.092;2024-03-07T15:19:51;21.20;;;11.93;;
3547;SDS011;1788;49.400;11.092;2024-03-07T15:22:18;23.17;;;12.30;;
3547;SDS011;1788;49.400;11.092;2024-03-07T15:24:45;22.17;;;12.37;;
3547;SDS011;1788;49.400;11.092;2024-03-07T15:27:12;22.53;;;11.80;;
3547;SDS011;1788;49.400;11.092;2024-03-07T15:29:39;21.70;;;12.17;;
3547;SDS011;1788;49.400;11.092;2024-03-07T15:32:06;16.07;;;11.03;;
3547;SDS011;1788;49.400;11.092;2024-03-07T15:34:33;24.57;;;11.90;;
3547;SDS011;1788;49.400;11.092;2024-03-07T15:37:00;19.13;;;11.27;;
3547;SDS011;1788;49.400;11.092;2024-03-07T15:39:28;21.80;;;12.33;;
3547;SDS011;1788;49.400;11.092;2024-03-07T15:41:54;19.03;;;10.70;;
3547;SDS011;1788;49.400;11.092;2024-03-07T15:44:21;24.57;;;13.20;;
3547;SDS011;1788;49.400;11.092;2024-03-07T15:46:48;21.57;;;12.87;;